Time;durP1;ratioP1;P1;durP2;ratioP2;P2;SDS_P1;SDS_P2;PMS_P1;PMS_P2;Temp;Humidity;BMP_temperature;BMP_pressure;BME280_temperature;BME280_humidity;BME280_pressure;Samples;Min_cycle;Max_cycle;Signal;HPM_P1;HPM_P2
2024/01/11 00:01:49;;;;;;;43.97;29.50;;;-4.30;99.90;;;;;;7366518;19;20387;-75
2024/01/11 00:04:16;;;;;;;47.08;30.38;;;-4.20;99.90;;;;;;7367081;19;20014;-74
2024/01/11 00:06:43;;;;;;;48.33;31.83;;;-4.20;99.90;;;;;;7363562;19;20022;-74
2024/01/11 00:09:09;;;;;;;48.28;31.35;;;-4.30;99.90;;;;;;7369585;19;20028;-75
2024/01/11 00:11:36;;;;;;;49.50;32.83;;;-4.30;99.90;;;;;;7358658;19;20583;-66
2024/01/11 00:14:02;;;;;;;46.60;30.00;;;-4.20;99.90;;;;;;7373214;19;20534;-66
2024/01/11 00:16:31;;;;;;;48.45;31.30;;;-4.30;99.90;;;;;;7366588;19;20037;-66
2024/01/11 00:18:57;;;;;;;47.72;30.90;;;-4.30;99.90;;;;;;7369557;19;20022;-66
2024/01/11 00:21:24;;;;;;;48.95;31.92;;;-4.20;99.90;;;;;;7368365;19;20070;-66
2024/01/11 00:23:50;;;;;;;48.70;31.05;;;-4.30;99.90;;;;;;7369811;19;20577;-66
2024/01/11 00:26:16;;;;;;;47.22;30.33;;;-4.30;99.90;;;;;;7373356;19;20822;-66
2024/01/11 00:28:42;;;;;;;45.85;29.90;;;-4.30;99.90;;;;;;7369093;19;20026;-66
2024/01/11 00:31:11;;;;;;;45.72;29.77;;;-4.30;99.90;;;;;;7367807;19;20018;-67
2024/01/11 00:33:37;;;;;;;47.50;31.27;;;-4.30;99.90;;;;;;7365617;19;20048;-66
2024/01/11 00:36:04;;;;;;;48.10;30.88;;;-4.30;99.90;;;;;;7367120;19;20162;-67
2024/01/11 00:38:30;;;;;;;49.63;31.85;;;-4.30;99.90;;;;;;7369398;19;20041;-66
2024/01/11 00:40:56;;;;;;;45.65;29.30;;;-4.30;99.90;;;;;;7372479;19;21064;-66
2024/01/11 00:43:22;;;;;;;50.70;31.40;;;-4.30;99.90;;;;;;7369222;19;20023;-66
2024/01/11 00:45:48;;;;;;;48.20;30.60;;;-4.30;99.90;;;;;;7373127;19;20018;-66
2024/01/11 00:48:15;;;;;;;47.00;30.23;;;-4.30;99.90;;;;;;7367453;19;20198;-66
2024/01/11 00:50:41;;;;;;;51.03;32.63;;;-4.30;99.90;;;;;;7372703;19;20026;-66
2024/01/11 00:53:08;;;;;;;50.22;32.33;;;-4.30;99.90;;;;;;7366118;19;20480;-66
2024/01/11 00:55:34;;;;;;;50.88;31.77;;;-4.30;99.90;;;;;;7373034;19;20018;-67
2024/01/11 00:58:01;;;;;;;47.53;30.48;;;-4.30;99.90;;;;;;7369767;19;20077;-66
2024/01/11 01:00:27;;;;;;;49.35;31.13;;;-4.40;99.90;;;;;;7367564;19;20021;-66
2024/01/11 01:02:54;;;;;;;50.85;31.17;;;-4.40;99.90;;;;;;7366394;19;20043;-65
2024/01/11 01:05:20;;;;;;;47.92;30.90;;;-4.30;99.90;;;;;;7371079;19;21501;-66
2024/01/11 01:07:46;;;;;;;48.45;31.90;;;-4.40;99.90;;;;;;7365221;19;20022;-66
2024/01/11 01:10:12;;;;;;;51.42;32.75;;;-4.40;99.90;;;;;;7369829;19;20523;-66
2024/01/11 01:12:38;;;;;;;48.83;31.73;;;-4.40;99.90;;;;;;7366226;19;20509;-66
2024/01/11 01:15:24;;;;;;;53.70;33.55;;;-4.40;99.90;;;;;;7371801;19;20418;-66
2024/01/11 01:17:50;;;;;;;49.80;30.98;;;-4.40;99.90;;;;;;7366247;19;20038;-66
2024/01/11 01:20:17;;;;;;;47.33;30.63;;;-4.40;99.90;;;;;;7365382;19;20077;-66
2024/01/11 01:22:43;;;;;;;51.17;31.73;;;-4.40;99.90;;;;;;7369900;19;20485;-66
2024/01/11 01:25:10;;;;;;;45.25;29.23;;;-4.40;99.90;;;;;;7366237;19;20812;-66
2024/01/11 01:27:36;;;;;;;52.22;30.95;;;-4.50;99.90;;;;;;7366358;19;20593;-66
2024/01/11 01:30:23;;;;;;;49.58;31.50;;;-4.40;99.90;;;;;;7366469;19;20033;-66
2024/01/11 01:32:51;;;;;;;50.92;32.92;;;-4.40;99.90;;;;;;7366229;19;20074;-66
2024/01/11 01:35:17;;;;;;;50.67;31.27;;;-4.40;99.90;;;;;;7372096;19;20499;-66
2024/01/11 01:37:43;;;;;;;48.17;31.15;;;-4.50;99.90;;;;;;7374546;19;20503;-74
2024/01/11 01:40:11;;;;;;;46.72;31.30;;;-4.50;99.90;;;;;;7375401;19;20060;-74
2024/01/11 01:42:44;;;;;;;49.42;31.50;;;-4.50;99.90;;;;;;7378094;19;20600;-74
2024/01/11 01:45:11;;;;;;;54.83;32.75;;;-4.50;99.90;;;;;;7376322;19;20023;-66
2024/01/11 01:47:41;;;;;;;52.88;32.00;;;-4.50;99.90;;;;;;7372358;19;20018;-66
2024/01/11 01:50:11;;;;;;;51.60;30.23;;;-4.50;99.90;;;;;;7374461;19;20014;-66
2024/01/11 01:52:44;;;;;;;47.35;31.23;;;-4.50;99.90;;;;;;7368422;19;20074;-66
2024/01/11 01:55:12;;;;;;;48.78;30.77;;;-4.50;99.90;;;;;;7373123;19;20025;-74
2024/01/11 01:57:40;;;;;;;51.90;30.30;;;-4.50;99.90;;;;;;7376316;19;20367;-75
2024/01/11 02:00:10;;;;;;;49.33;30.10;;;-4.60;99.90;;;;;;7370551;19;20103;-74
2024/01/11 02:02:42;;;;;;;50.78;31.02;;;-4.60;99.90;;;;;;7373823;19;20039;-75
2024/01/11 02:05:10;;;;;;;50.47;30.70;;;-4.50;99.90;;;;;;7371816;19;20022;-74
2024/01/11 02:08:03;;;;;;;51.08;30.50;;;-4.50;99.90;;;;;;7355770;19;20019;-74
2024/01/11 02:10:32;;;;;;;47.30;28.15;;;-4.50;99.90;;;;;;7375367;19;20025;-74
2024/01/11 02:12:59;;;;;;;45.60;28.67;;;-4.60;99.90;;;;;;7371978;19;21011;-74
2024/01/11 02:15:25;;;;;;;56.40;31.63;;;-4.60;99.90;;;;;;7372008;19;20043;-74
2024/01/11 02:17:51;;;;;;;48.20;31.45;;;-4.60;99.90;;;;;;7371614;19;20022;-74
2024/01/11 02:20:38;;;;;;;46.75;28.40;;;-4.50;99.90;;;;;;7378273;19;20942;-74
2024/01/11 02:23:08;;;;;;;50.75;30.58;;;-4.60;99.90;;;;;;7369920;19;20042;-74
2024/01/11 02:25:34;;;;;;;47.75;32.03;;;-4.60;99.90;;;;;;7378125;19;20053;-74
2024/01/11 02:28:00;;;;;;;54.03;32.53;;;-4.60;99.90;;;;;;7374222;19;20390;-73
2024/01/11 02:30:27;;;;;;;50.03;29.45;;;-4.60;99.90;;;;;;7369061;19;20015;-74
2024/01/11 02:32:54;;;;;;;48.25;31.67;;;-4.60;99.90;;;;;;7373887;19;20822;-74
2024/01/11 02:35:21;;;;;;;49.63;29.75;;;-4.60;99.90;;;;;;7370117;19;20089;-73
2024/01/11 02:37:48;;;;;;;46.35;30.15;;;-4.60;99.90;;;;;;7370093;19;20369;-73
2024/01/11 02:40:15;;;;;;;52.63;29.92;;;-4.60;99.90;;;;;;7370990;19;20131;-66
2024/01/11 02:42:41;;;;;;;48.75;29.75;;;-4.70;99.90;;;;;;7374228;19;21752;-66
2024/01/11 02:45:14;;;;;;;56.95;32.75;;;-4.70;99.90;;;;;;7371343;19;20022;-66
2024/01/11 02:47:40;;;;;;;50.15;30.40;;;-4.70;99.90;;;;;;7373940;19;20070;-66
2024/01/11 02:50:07;;;;;;;52.97;32.50;;;-4.70;99.90;;;;;;7372985;19;20029;-73
2024/01/11 02:52:34;;;;;;;48.72;28.85;;;-4.70;99.90;;;;;;7368642;19;20018;-73
2024/01/11 02:55:00;;;;;;;48.60;31.05;;;-4.70;99.90;;;;;;7373273;19;20907;-74
2024/01/11 02:57:26;;;;;;;51.95;30.80;;;-4.60;99.90;;;;;;7376684;19;20047;-73
2024/01/11 02:59:53;;;;;;;47.70;29.58;;;-4.70;99.90;;;;;;7378022;19;20014;-66
2024/01/11 03:02:19;;;;;;;47.65;28.77;;;-4.70;99.90;;;;;;7370064;19;20138;-66
2024/01/11 03:04:45;;;;;;;56.05;32.65;;;-4.70;99.90;;;;;;7378269;19;20043;-66
2024/01/11 03:07:11;;;;;;;52.30;29.95;;;-4.70;99.90;;;;;;7374234;19;20078;-66
2024/01/11 03:09:37;;;;;;;52.92;33.47;;;-4.70;99.90;;;;;;7376071;19;20050;-73
2024/01/11 03:12:06;;;;;;;53.13;32.65;;;-4.80;99.90;;;;;;7378405;19;20042;-72
2024/01/11 03:14:32;;;;;;;56.40;32.00;;;-4.70;99.90;;;;;;7372673;19;20062;-72
2024/01/11 03:16:59;;;;;;;52.83;31.58;;;-4.70;99.90;;;;;;7380175;19;20023;-66
2024/01/11 03:19:25;;;;;;;53.05;33.38;;;-4.70;99.90;;;;;;7374825;19;20580;-72
2024/01/11 03:21:51;;;;;;;52.65;31.95;;;-4.70;99.90;;;;;;7369873;19;20081;-65
2024/01/11 03:24:18;;;;;;;52.03;30.63;;;-4.70;99.90;;;;;;7373887;19;20029;-66
2024/01/11 03:26:44;;;;;;;49.22;31.10;;;-4.70;99.90;;;;;;7374813;19;20631;-65
2024/01/11 03:29:10;;;;;;;55.38;32.65;;;-4.70;99.90;;;;;;7374763;19;20014;-66
2024/01/11 03:31:37;;;;;;;54.75;32.70;;;-4.70;99.90;;;;;;7377662;19;20027;-72
2024/01/11 03:34:04;;;;;;;52.20;31.00;;;-4.70;99.90;;;;;;7375618;19;20098;-66
2024/01/11 03:36:31;;;;;;;53.60;31.27;;;-4.70;99.90;;;;;;7375883;19;20014;-66
2024/01/11 03:38:57;;;;;;;51.10;30.63;;;-4.70;99.90;;;;;;7376379;19;20027;-65
2024/01/11 03:41:23;;;;;;;52.67;31.48;;;-4.70;99.90;;;;;;7371183;19;20022;-72
2024/01/11 03:44:10;;;;;;;51.50;31.10;;;-4.80;99.90;;;;;;7372454;19;20712;-72
2024/01/11 03:46:36;;;;;;;47.70;29.70;;;-4.70;99.90;;;;;;7374362;19;20370;-72
2024/01/11 03:49:02;;;;;;;54.97;32.25;;;-4.70;99.90;;;;;;7373700;19;20437;-72
2024/01/11 03:51:48;;;;;;;60.58;33.53;;;-4.70;99.90;;;;;;7373136;19;20030;-70
2024/01/11 03:54:15;;;;;;;58.10;34.05;;;-4.80;99.90;;;;;;7372226;19;20417;-72
2024/01/11 03:56:41;;;;;;;53.67;31.25;;;-4.80;99.90;;;;;;7378864;19;20098;-72
2024/01/11 03:59:07;;;;;;;57.40;34.10;;;-4.70;99.90;;;;;;7375422;19;20018;-65
2024/01/11 04:01:33;;;;;;;59.55;33.15;;;-4.80;99.90;;;;;;7375499;19;20022;-66
2024/01/11 04:03:59;;;;;;;55.28;31.50;;;-4.80;99.90;;;;;;7376192;19;20696;-72
2024/01/11 04:06:46;;;;;;;54.90;30.85;;;-4.80;99.90;;;;;;7373422;19;20014;-72
2024/01/11 04:09:12;;;;;;;51.70;30.98;;;-4.80;99.90;;;;;;7374929;19;20093;-66
2024/01/11 04:11:38;;;;;;;54.53;33.20;;;-4.80;99.90;;;;;;7374679;19;20018;-72
2024/01/11 04:14:04;;;;;;;56.45;33.90;;;-4.80;99.90;;;;;;7371356;19;20494;-72
2024/01/11 04:16:30;;;;;;;55.60;32.58;;;-4.80;99.90;;;;;;7374260;19;20014;-72
2024/01/11 04:18:56;;;;;;;51.40;31.08;;;-4.80;99.90;;;;;;7372108;19;20019;-72
2024/01/11 04:21:24;;;;;;;51.42;32.90;;;-4.80;99.90;;;;;;7374026;19;20015;-73
2024/01/11 04:23:50;;;;;;;56.10;32.40;;;-4.80;99.90;;;;;;7372550;19;20096;-73
2024/01/11 04:26:17;;;;;;;59.13;33.90;;;-4.80;99.90;;;;;;7371561;19;20024;-71
2024/01/11 04:28:46;;;;;;;61.67;33.17;;;-4.90;99.90;;;;;;7370801;19;20026;-66
2024/01/11 04:31:12;;;;;;;50.65;31.27;;;-4.90;99.90;;;;;;7373594;19;20352;-66
2024/01/11 04:33:41;;;;;;;56.72;32.80;;;-5.00;99.90;;;;;;7372329;19;20015;-66
2024/01/11 04:36:09;;;;;;;51.40;31.80;;;-5.00;99.90;;;;;;7373515;19;20026;-66
2024/01/11 04:38:37;;;;;;;53.38;31.50;;;-5.10;99.90;;;;;;7372931;19;20014;-65
2024/01/11 04:41:13;;;;;;;56.35;32.63;;;-5.00;99.90;;;;;;7372604;19;20471;-65
2024/01/11 04:43:41;;;;;;;53.60;30.90;;;-5.00;99.90;;;;;;7369440;19;20588;-66
2024/01/11 04:46:16;;;;;;;55.22;32.17;;;-5.00;99.90;;;;;;7371877;19;20019;-66
2024/01/11 04:48:43;;;;;;;53.60;32.67;;;-5.00;99.90;;;;;;7369776;19;20501;-66
2024/01/11 04:51:10;;;;;;;59.67;34.65;;;-5.00;99.90;;;;;;7370794;19;20046;-65
2024/01/11 04:53:39;;;;;;;53.38;31.77;;;-5.00;99.90;;;;;;7368516;19;20090;-65
2024/01/11 04:56:07;;;;;;;52.10;31.75;;;-5.00;99.90;;;;;;7371404;19;20033;-66
2024/01/11 04:58:34;;;;;;;52.35;30.98;;;-5.00;99.90;;;;;;7367905;19;20022;-66
2024/01/11 05:01:00;;;;;;;54.25;31.83;;;-5.10;99.90;;;;;;7372529;19;20034;-66
2024/01/11 05:03:27;;;;;;;54.00;32.55;;;-5.00;99.90;;;;;;7368049;19;20018;-66
2024/01/11 05:05:54;;;;;;;54.35;31.30;;;-5.00;99.90;;;;;;7371339;19;20018;-66
2024/01/11 05:08:20;;;;;;;52.05;33.28;;;-5.10;99.90;;;;;;7372759;19;20028;-66
2024/01/11 05:10:46;;;;;;;55.95;35.05;;;-5.10;99.90;;;;;;7378948;19;20050;-66
2024/01/11 05:13:12;;;;;;;52.40;32.30;;;-5.10;99.90;;;;;;7375940;19;20089;-66
2024/01/11 05:15:38;;;;;;;51.50;32.28;;;-5.10;99.90;;;;;;7374859;19;20102;-67
2024/01/11 05:18:05;;;;;;;55.28;32.30;;;-5.10;99.90;;;;;;7377592;19;20396;-66
2024/01/11 05:20:31;;;;;;;55.50;31.55;;;-5.10;99.90;;;;;;7377508;19;20489;-66
2024/01/11 05:22:57;;;;;;;55.97;32.67;;;-5.10;99.90;;;;;;7376944;19;20018;-66
2024/01/11 05:25:23;;;;;;;57.38;33.17;;;-5.00;99.90;;;;;;7377097;19;20035;-66
2024/01/11 05:27:49;;;;;;;57.17;33.13;;;-5.00;99.90;;;;;;7371717;19;20031;-66
2024/01/11 05:30:35;;;;;;;60.13;37.00;;;-5.00;99.90;;;;;;7377925;19;20297;-66
2024/01/11 05:33:02;;;;;;;56.55;34.13;;;-5.00;99.90;;;;;;7375693;19;20035;-66
2024/01/11 05:35:28;;;;;;;53.63;34.35;;;-5.00;99.90;;;;;;7378631;19;20010;-66
2024/01/11 05:37:56;;;;;;;55.28;34.03;;;-4.90;99.90;;;;;;7377377;19;20117;-66
2024/01/11 05:40:22;;;;;;;65.93;37.70;;;-4.80;99.90;;;;;;7377695;19;20014;-67
2024/01/11 05:42:48;;;;;;;55.97;32.40;;;-4.70;99.90;;;;;;7376089;19;20021;-69
2024/01/11 05:45:16;;;;;;;55.20;33.60;;;-4.60;99.90;;;;;;7376434;19;20041;-67
2024/01/11 05:48:05;;;;;;;54.38;32.65;;;-4.50;99.90;;;;;;7373890;19;20023;-67
2024/01/11 05:50:32;;;;;;;57.10;33.38;;;-4.30;99.90;;;;;;7376954;19;20038;-66
2024/01/11 05:52:58;;;;;;;55.50;32.88;;;-4.30;99.90;;;;;;7375800;19;20019;-67
2024/01/11 05:55:25;;;;;;;55.63;33.70;;;-4.20;99.90;;;;;;7374024;19;20015;-67
2024/01/11 05:57:51;;;;;;;51.67;32.70;;;-4.10;99.90;;;;;;7376565;19;20019;-69
2024/01/11 06:00:18;;;;;;;53.25;33.67;;;-4.00;99.90;;;;;;7373755;19;20026;-67
2024/01/11 06:02:49;;;;;;;57.20;34.30;;;-4.00;99.90;;;;;;7378767;19;20022;-66
2024/01/11 06:05:15;;;;;;;58.17;34.42;;;-3.90;99.90;;;;;;7373884;19;20019;-66
2024/01/11 06:08:02;;;;;;;54.47;32.88;;;-3.80;99.90;;;;;;7374438;19;20026;-66
2024/01/11 06:10:28;;;;;;;52.58;31.75;;;-3.70;99.90;;;;;;7373391;19;20022;-66
2024/01/11 06:12:56;;;;;;;52.08;33.80;;;-3.70;99.90;;;;;;7375512;19;20946;-66
2024/01/11 06:15:22;;;;;;;53.92;34.00;;;-3.60;99.90;;;;;;7373255;19;20654;-67
2024/01/11 06:17:49;;;;;;;48.58;32.90;;;-3.50;99.90;;;;;;7372479;19;20029;-65
2024/01/11 06:20:16;;;;;;;52.55;33.08;;;-3.50;99.90;;;;;;7373097;19;20373;-73
2024/01/11 06:22:42;;;;;;;50.35;32.63;;;-3.40;99.90;;;;;;7377218;19;20243;-71
2024/01/11 06:25:08;;;;;;;56.50;33.33;;;-3.30;99.90;;;;;;7377285;19;20836;-66
2024/01/11 06:27:35;;;;;;;51.83;33.03;;;-3.30;99.90;;;;;;7369218;19;20091;-71
2024/01/11 06:30:01;;;;;;;52.00;33.30;;;-3.20;99.90;;;;;;7375632;19;20029;-65
2024/01/11 06:32:27;;;;;;;57.85;35.25;;;-3.20;99.90;;;;;;7375210;19;20022;-65
2024/01/11 06:34:53;;;;;;;52.63;32.92;;;-3.10;99.90;;;;;;7375364;19;20867;-72
2024/01/11 06:37:20;;;;;;;51.30;32.85;;;-3.00;99.90;;;;;;7372513;19;20019;-71
2024/01/11 06:39:47;;;;;;;57.78;35.97;;;-3.00;99.90;;;;;;7376735;19;20018;-71
2024/01/11 06:42:14;;;;;;;54.45;34.40;;;-3.00;99.90;;;;;;7377368;19;20019;-72
2024/01/11 06:44:40;;;;;;;54.13;34.58;;;-3.00;99.90;;;;;;7371690;19;20497;-72
2024/01/11 06:47:06;;;;;;;52.08;32.70;;;-2.90;99.90;;;;;;7372726;19;20014;-72
2024/01/11 06:49:33;;;;;;;51.58;32.88;;;-2.90;99.90;;;;;;7376310;19;20047;-72
2024/01/11 06:52:00;;;;;;;52.20;32.63;;;-3.00;99.90;;;;;;7374377;19;20374;-72
2024/01/11 06:54:26;;;;;;;52.58;32.40;;;-2.80;99.90;;;;;;7375347;19;20058;-72
2024/01/11 06:56:52;;;;;;;51.70;33.05;;;-2.80;99.90;;;;;;7370917;19;20014;-72
2024/01/11 06:59:18;;;;;;;51.47;33.78;;;-2.80;99.90;;;;;;7375192;19;20778;-72
2024/01/11 07:01:44;;;;;;;47.58;32.70;;;-2.80;99.90;;;;;;7376551;19;20032;-71
2024/01/11 07:04:11;;;;;;;51.53;31.38;;;-2.70;99.90;;;;;;7374858;19;20046;-71
2024/01/11 07:06:37;;;;;;;50.97;32.67;;;-2.70;99.90;;;;;;7367910;19;20537;-71
2024/01/11 07:09:05;;;;;;;51.72;33.28;;;-2.60;99.90;;;;;;7373492;19;20813;-72
2024/01/11 07:11:32;;;;;;;46.47;32.00;;;-2.70;99.90;;;;;;7373252;19;20018;-72
2024/01/11 07:13:58;;;;;;;53.10;32.50;;;-2.60;99.90;;;;;;7375507;19;20010;-72
2024/01/11 07:16:24;;;;;;;51.92;33.03;;;-2.50;99.90;;;;;;7374793;19;20010;-73
2024/01/11 07:18:51;;;;;;;52.30;31.95;;;-2.50;99.90;;;;;;7378158;19;20015;-73
2024/01/11 07:21:37;;;;;;;52.30;32.67;;;-2.50;99.90;;;;;;7376053;19;20421;-73
2024/01/11 07:24:03;;;;;;;56.70;33.90;;;-2.30;99.90;;;;;;7376537;19;20056;-72
2024/01/11 07:26:30;;;;;;;52.10;33.17;;;-2.40;99.90;;;;;;7369387;19;20032;-73
2024/01/11 07:28:56;;;;;;;49.22;32.28;;;-2.30;99.90;;;;;;7373260;19;20014;-72
2024/01/11 07:31:22;;;;;;;51.20;33.38;;;-2.30;99.90;;;;;;7372361;19;20103;-71
2024/01/11 07:33:49;;;;;;;50.95;32.70;;;-2.30;99.90;;;;;;7376226;19;20018;-72
2024/01/11 07:36:15;;;;;;;55.55;34.78;;;-2.20;99.90;;;;;;7371755;19;20026;-72
2024/01/11 07:39:01;;;;;;;53.00;33.42;;;-2.30;99.90;;;;;;7375627;19;20038;-72
2024/01/11 07:41:28;;;;;;;56.25;34.20;;;-2.10;99.90;;;;;;7371719;19;20019;-72
2024/01/11 07:43:58;;;;;;;54.78;33.95;;;-2.10;99.90;;;;;;7369183;19;20106;-72
2024/01/11 07:46:24;;;;;;;55.75;35.53;;;-2.10;99.90;;;;;;7366482;19;20018;-72
2024/01/11 07:48:50;;;;;;;50.85;33.92;;;-2.00;99.90;;;;;;7371009;19;20022;-72
2024/01/11 07:51:20;;;;;;;52.80;32.50;;;-2.00;99.90;;;;;;7378190;19;20026;-72
2024/01/11 07:53:46;;;;;;;54.90;33.88;;;-1.90;99.90;;;;;;7370960;19;20668;-73
2024/01/11 07:56:13;;;;;;;52.95;34.40;;;-2.00;99.90;;;;;;7373231;19;20014;-73
2024/01/11 07:58:41;;;;;;;51.05;33.50;;;-1.90;99.90;;;;;;7371694;19;20371;-72
2024/01/11 08:01:08;;;;;;;53.38;32.95;;;-1.90;99.90;;;;;;7368797;19;20207;-73
2024/01/11 08:03:35;;;;;;;55.38;33.63;;;-1.90;99.90;;;;;;7367230;19;20022;-73
2024/01/11 08:06:01;;;;;;;51.55;33.60;;;-1.90;99.90;;;;;;7370597;19;20045;-73
2024/01/11 08:08:28;;;;;;;54.28;34.13;;;-1.90;99.90;;;;;;7367703;19;20022;-73
2024/01/11 08:10:54;;;;;;;54.25;35.70;;;-1.80;99.90;;;;;;7370482;19;20038;-73
2024/01/11 08:13:21;;;;;;;54.22;34.75;;;-1.80;99.90;;;;;;7367598;19;20035;-76
2024/01/11 08:15:47;;;;;;;56.35;34.58;;;-1.80;99.90;;;;;;7365785;19;20041;-74
2024/01/11 08:18:15;;;;;;;52.60;35.28;;;-1.70;99.90;;;;;;7369819;19;20490;-72
2024/01/11 08:20:41;;;;;;;56.80;34.95;;;-1.60;99.90;;;;;;7368537;19;20022;-73
2024/01/11 08:23:07;;;;;;;57.60;35.35;;;-1.60;99.90;;;;;;7372448;19;20068;-72
2024/01/11 08:25:34;;;;;;;54.55;34.83;;;-1.60;99.90;;;;;;7369282;19;20031;-72
2024/01/11 08:28:00;;;;;;;53.25;34.55;;;-1.60;99.90;;;;;;7368796;19;20022;-61
2024/01/11 08:30:26;;;;;;;50.80;34.25;;;-1.60;99.90;;;;;;7370357;19;20050;-62
2024/01/11 08:32:52;;;;;;;55.22;33.63;;;-1.60;99.90;;;;;;7372560;19;20010;-62
2024/01/11 08:35:19;;;;;;;48.20;33.80;;;-1.50;99.90;;;;;;7369733;19;20015;-62
2024/01/11 08:37:45;;;;;;;52.00;34.40;;;-1.50;99.90;;;;;;7371832;19;20103;-62
2024/01/11 08:40:11;;;;;;;50.75;33.25;;;-1.50;99.90;;;;;;7362964;19;20052;-62
2024/01/11 08:42:39;;;;;;;53.03;33.53;;;-1.50;99.90;;;;;;7364822;19;20574;-62
2024/01/11 08:45:07;;;;;;;55.42;36.28;;;-1.40;99.90;;;;;;7364898;19;20015;-59
2024/01/11 08:47:53;;;;;;;54.17;35.00;;;-1.30;99.90;;;;;;7363573;19;20064;-59
2024/01/11 08:50:21;;;;;;;52.17;33.65;;;-1.40;99.90;;;;;;7364852;19;20026;-58
2024/01/11 08:52:50;;;;;;;52.53;33.75;;;-1.30;99.90;;;;;;7367249;19;20046;-59
2024/01/11 08:55:16;;;;;;;55.55;37.15;;;-1.20;99.90;;;;;;7364143;19;20022;-62
2024/01/11 08:57:43;;;;;;;54.83;35.28;;;-1.20;99.90;;;;;;7364570;19;20657;-63
2024/01/11 09:00:10;;;;;;;52.03;34.38;;;-1.20;99.90;;;;;;7365734;19;20034;-63
2024/01/11 09:02:36;;;;;;;54.25;35.25;;;-1.20;99.90;;;;;;7361412;19;20046;-62
2024/01/11 09:05:07;;;;;;;53.22;35.65;;;-1.10;99.90;;;;;;7367803;19;20025;-62
2024/01/11 09:07:33;;;;;;;53.40;34.45;;;-1.10;99.90;;;;;;7362194;19;20007;-62
2024/01/11 09:09:59;;;;;;;57.55;35.55;;;-1.10;99.90;;;;;;7367743;19;20113;-60
2024/01/11 09:12:25;;;;;;;55.45;35.28;;;-1.00;99.90;;;;;;7363636;19;20139;-60
2024/01/11 09:14:51;;;;;;;59.40;36.42;;;-1.00;99.90;;;;;;7366635;19;20038;-60
2024/01/11 09:17:38;;;;;;;55.63;35.05;;;-0.90;99.90;;;;;;7369123;19;20031;-60
2024/01/11 09:20:05;;;;;;;56.22;34.53;;;-0.90;99.90;;;;;;7365163;19;20025;-60
2024/01/11 09:22:31;;;;;;;49.15;32.03;;;-0.90;99.90;;;;;;7320729;19;20029;-63
2024/01/11 09:24:57;;;;;;;56.53;35.33;;;-0.90;99.90;;;;;;7364421;19;20017;-62
2024/01/11 09:27:23;;;;;;;52.42;34.35;;;-0.80;99.90;;;;;;7366929;19;20110;-62
2024/01/11 09:29:50;;;;;;;53.30;33.90;;;-0.80;99.90;;;;;;7372285;19;20046;-60
2024/01/11 09:32:16;;;;;;;55.05;35.75;;;-0.70;99.90;;;;;;7365767;19;20026;-60
2024/01/11 09:34:45;;;;;;;49.67;33.38;;;-0.70;99.90;;;;;;7370693;19;20042;-60
2024/01/11 09:37:11;;;;;;;49.42;33.38;;;-0.60;99.90;;;;;;7372587;19;20035;-60
2024/01/11 09:39:37;;;;;;;51.35;34.97;;;-0.60;99.90;;;;;;7369098;19;20018;-60
2024/01/11 09:42:13;;;;;;;50.50;32.78;;;-0.50;99.90;;;;;;7375202;19;20019;-60
2024/01/11 09:44:41;;;;;;;50.70;33.85;;;-0.50;99.90;;;;;;7373783;19;20014;-60
2024/01/11 09:47:10;;;;;;;55.10;34.38;;;-0.50;99.90;;;;;;7368146;19;20026;-60
2024/01/11 09:49:38;;;;;;;51.80;33.90;;;-0.50;99.90;;;;;;7370829;19;20042;-59
2024/01/11 09:52:05;;;;;;;51.90;33.13;;;-0.40;99.90;;;;;;7371755;19;20010;-59
2024/01/11 09:54:31;;;;;;;49.88;32.67;;;-0.40;99.90;;;;;;7375699;19;20018;-59
2024/01/11 09:57:03;;;;;;;50.40;33.10;;;-0.30;99.90;;;;;;7375286;19;20361;-59
2024/01/11 09:59:30;;;;;;;;;;;-0.30;99.90;;;;;;7378863;19;20021;-59
2024/01/11 10:01:57;;;;;;;53.35;32.80;;;-0.20;99.90;;;;;;7381713;19;20359;-59
2024/01/11 10:04:24;;;;;;;50.17;33.25;;;-0.20;99.90;;;;;;7376414;19;20568;-59
2024/01/11 10:07:11;;;;;;;53.45;34.10;;;-0.10;99.90;;;;;;7378798;19;20021;-59
2024/01/11 10:09:37;;;;;;;51.40;33.22;;;0.00;99.90;;;;;;7376805;19;20010;-59
2024/01/11 10:12:04;;;;;;;50.30;33.42;;;0.00;99.90;;;;;;7380702;19;20033;-62
2024/01/11 10:14:31;;;;;;;49.05;31.50;;;0.00;99.90;;;;;;7381218;19;20015;-59
2024/01/11 10:16:58;;;;;;;54.60;33.30;;;0.00;99.90;;;;;;7379168;19;20375;-60
2024/01/11 10:19:24;;;;;;;54.15;34.10;;;0.10;99.90;;;;;;7379866;19;20081;-62
2024/01/11 10:21:50;;;;;;;47.50;30.17;;;0.20;99.90;;;;;;7378336;19;20056;-62
2024/01/11 10:24:26;;;;;;;48.80;32.38;;;0.10;99.90;;;;;;7373869;19;20026;-62
2024/01/11 10:26:57;;;;;;;50.83;32.38;;;0.20;99.90;;;;;;7377344;19;20074;-62
2024/01/11 10:29:44;;;;;;;47.45;30.75;;;0.20;99.90;;;;;;7377891;19;20032;-61
2024/01/11 10:34:52;;;;;;;48.95;31.98;;;0.40;99.90;;;;;;7406027;19;20399;-62
2024/01/11 10:37:21;;;;;;;48.08;32.20;;;0.40;99.90;;;;;;7408619;19;20077;-61
2024/01/11 10:39:51;;;;;;;49.03;33.28;;;0.40;99.90;;;;;;7411961;19;20408;-62
2024/01/11 10:42:23;;;;;;;54.45;32.97;;;0.40;99.90;;;;;;7411104;19;20025;-62
2024/01/11 10:44:55;;;;;;;50.58;32.83;;;0.50;99.90;;;;;;7407388;19;20015;-59
2024/01/11 10:47:24;;;;;;;;;;;0.50;99.90;;;;;;7413073;19;20018;-60
2024/01/11 10:49:53;;;;;;;49.35;31.02;;;0.50;99.90;;;;;;7407401;19;19926;-59
2024/01/11 10:52:25;;;;;;;50.63;31.40;;;0.50;99.90;;;;;;7411438;19;20025;-58
2024/01/11 10:54:52;;;;;;;43.08;29.83;;;0.60;99.90;;;;;;7405300;19;20069;-59
2024/01/11 10:57:18;;;;;;;47.25;31.05;;;0.60;99.90;;;;;;7413022;19;20749;-59
2024/01/11 10:59:47;;;;;;;44.65;30.92;;;0.50;99.90;;;;;;7410626;19;20598;-58
2024/01/11 11:02:17;;;;;;;49.13;31.73;;;0.60;99.90;;;;;;7414364;19;20029;-59
2024/01/11 11:04:45;;;;;;;47.88;32.28;;;0.70;99.90;;;;;;7409201;19;20029;-59
2024/01/11 11:07:12;;;;;;;50.55;32.20;;;0.80;99.90;;;;;;7411683;19;20860;-62
2024/01/11 11:09:43;;;;;;;48.08;29.77;;;0.70;99.90;;;;;;7409951;19;20044;-62
2024/01/11 11:12:32;;;;;;;49.33;31.90;;;0.70;99.90;;;;;;7407866;19;20015;-62
2024/01/11 11:15:01;;;;;;;44.10;29.35;;;0.70;99.90;;;;;;7411389;19;20022;-59
2024/01/11 11:17:28;;;;;;;44.60;29.83;;;0.70;99.90;;;;;;7411099;19;20416;-62
2024/01/11 11:19:55;;;;;;;44.58;28.58;;;0.80;99.90;;;;;;7412106;19;20011;-59
2024/01/11 11:22:21;;;;;;;49.33;30.08;;;0.80;99.90;;;;;;7407416;19;20018;-62
2024/01/11 11:24:47;;;;;;;45.55;29.35;;;0.80;99.90;;;;;;7411083;19;20020;-59
2024/01/11 11:27:17;;;;;;;45.67;29.15;;;0.80;99.90;;;;;;7409461;19;20014;-62
2024/01/11 11:29:49;;;;;;;45.17;30.02;;;0.80;99.90;;;;;;7409759;19;20058;-59
2024/01/11 11:32:17;;;;;;;45.17;29.88;;;0.80;99.90;;;;;;7410107;19;20011;-60
2024/01/11 11:34:44;;;;;;;44.60;30.73;;;0.90;99.90;;;;;;7405050;19;20033;-62
2024/01/11 11:37:10;;;;;;;49.58;30.17;;;0.90;99.90;;;;;;7404266;19;20411;-60
2024/01/11 11:39:38;;;;;;;47.25;30.67;;;0.90;99.90;;;;;;7411289;19;20081;-60
2024/01/11 11:42:05;;;;;;;48.90;31.30;;;0.90;99.90;;;;;;7407132;19;20099;-60
2024/01/11 11:44:32;;;;;;;47.08;31.20;;;1.00;99.90;;;;;;7403150;19;20058;-60
2024/01/11 11:47:19;;;;;;;48.33;31.42;;;0.90;99.90;;;;;;7377216;19;20716;-62
2024/01/11 11:50:07;;;;;;;45.83;29.60;;;1.00;99.90;;;;;;7379468;19;20019;-62
2024/01/11 11:52:37;;;;;;;44.60;29.67;;;0.90;99.90;;;;;;7382302;19;20026;-62
2024/01/11 11:55:06;;;;;;;44.33;27.75;;;1.00;99.90;;;;;;7378512;19;20015;-62
2024/01/11 11:57:34;;;;;;;42.63;27.40;;;0.90;99.90;;;;;;7379460;19;20023;-60
2024/01/11 12:00:05;;;;;;;38.50;28.00;;;1.00;99.90;;;;;;7379782;19;20014;-60
2024/01/11 12:02:38;;;;;;;44.33;30.00;;;1.00;99.90;;;;;;7378023;19;20022;-62
2024/01/11 12:05:04;;;;;;;49.08;28.80;;;1.00;99.90;;;;;;7381793;19;20043;-60
2024/01/11 12:07:31;;;;;;;45.88;28.50;;;1.10;99.90;;;;;;7376240;19;20015;-60
2024/01/11 12:09:58;;;;;;;42.40;28.30;;;1.10;99.90;;;;;;7381770;19;20062;-60
2024/01/11 12:12:24;;;;;;;45.55;28.73;;;1.10;99.90;;;;;;7376832;19;20025;-61
2024/01/11 12:14:50;;;;;;;39.45;26.85;;;1.20;99.90;;;;;;7377335;19;20018;-60
2024/01/11 12:17:17;;;;;;;42.00;27.52;;;1.20;99.90;;;;;;7379672;19;20018;-61
2024/01/11 12:19:44;;;;;;;39.75;25.58;;;1.20;99.90;;;;;;7379330;19;20708;-60
2024/01/11 12:22:10;;;;;;;42.25;29.02;;;1.20;99.90;;;;;;7379569;19;20053;-61
2024/01/11 12:24:37;;;;;;;41.80;27.77;;;1.20;99.90;;;;;;7381807;19;20010;-61
2024/01/11 12:27:03;;;;;;;44.85;28.10;;;1.20;99.90;;;;;;7376167;19;20019;-60
2024/01/11 12:29:30;;;;;;;41.75;26.52;;;1.20;99.90;;;;;;7379976;19;20022;-60
2024/01/11 12:32:00;;;;;;;42.45;27.83;;;1.10;99.90;;;;;;7377308;19;20077;-61
2024/01/11 12:34:27;;;;;;;42.63;27.95;;;1.10;99.90;;;;;;7377137;19;20022;-62
2024/01/11 12:36:55;;;;;;;44.15;28.65;;;1.10;99.90;;;;;;7375512;19;20046;-63
2024/01/11 12:39:24;;;;;;;43.28;28.38;;;1.10;99.90;;;;;;7380251;19;20082;-63